Main page
METAR-TAF:

METAR-TAF

Airports :

Vlissingen, Netherlands

latitude: 51-27N, longitude: 3-36E, elevation: 10 m

Current weather observation

The report was made 36 minutes ago, at 12:55 UTC
Wind 22 kt from the West, varying between West/Southwest and Northwest
Temperature 12°C
Humidity 76%
Pressure 1011 hPa
Visibility 10 km or more
light rain, drizzle

METAR: EHFS 221255Z AUTO 27022KT 240V310 9999 -RADZ SCT024/// BKN032/// BKN038/// 12/08 Q1011

Time: 15:31 (13:31 UTC)


TAF: missing

Weather observations and forecasts of more than 4000 airports (METAR and TAF reports).

The available stations are represented by yellow and red dots on the map.

Hover mouse over dot to see the name of the station.

Then click to see weather observations and forecasts.

To change the map : click on the green buttons with a black cross to zoom in, on the green button with a dash to zoom out, or on the green arrows for adjacent maps.


METAR-TAF: